Time;durP1;ratioP1;P1;durP2;ratioP2;P2;SDS_P1;SDS_P2;PMS_P1;PMS_P2;Temp;Humidity;BMP_temperature;BMP_pressure;BME280_temperature;BME280_humidity;BME280_pressure;Samples;Min_cycle;Max_cycle;Signal;HPM_P1;HPM_P2
2023/03/20 00:02:02;;;;;;;;;;;;;;;8.82;86.82;96679.13;5075183;28;20385;-70
2023/03/20 00:04:28;;;;;;;;;;;;;;;8.85;86.20;96677.91;5075227;28;19949;-68
2023/03/20 00:06:54;;;;;;;;;;;;;;;8.88;86.59;96680.13;5075962;28;19948;-70
2023/03/20 00:09:19;;;;;;;;;;;;;;;8.91;86.22;96679.72;5075284;28;20343;-69
2023/03/20 00:11:47;;;;;;;;;;;;;;;8.92;85.65;96674.31;5074940;28;20343;-68
2023/03/20 00:14:14;;;;;;;;;;;;;;;8.93;85.26;96678.50;5075670;28;19935;-68
2023/03/20 00:16:41;;;;;;;;;;;;;;;8.96;85.24;96681.72;5074638;28;19947;-68
2023/03/20 00:19:37;;;;;;;;;;;;;;;8.98;85.06;96671.88;5074849;28;19960;-68
2023/03/20 00:22:03;;;;;;;;;;;;;;;8.96;86.95;96687.75;5074463;28;19943;-67
2023/03/20 00:24:29;;;;;;;;;;;;;;;8.92;85.65;96683.94;5075376;28;20399;-70
2023/03/20 00:26:55;;;;;;;;;;;;;;;8.91;85.45;96679.72;5074861;28;19972;-68
2023/03/20 00:29:25;;;;;;;;;;;;;;;8.94;85.27;96681.94;5075537;28;20422;-68
2023/03/20 00:31:52;;;;;;;;;;;;;;;8.89;86.42;96684.34;5073667;28;19946;-68
2023/03/20 00:34:20;;;;;;;;;;;;;;;8.85;85.83;96688.38;5074759;28;20414;-67
2023/03/20 00:36:46;;;;;;;;;;;;;;;8.86;85.65;96688.19;5074709;28;19969;-67
2023/03/20 00:39:12;;;;;;;;;;;;;;;8.84;85.65;96681.53;5073260;28;19958;-68
2023/03/20 00:41:38;;;;;;;;;;;;;;;8.82;85.80;96691.38;5074796;28;19945;-81
2023/03/20 00:44:14;;;;;;;;;;;;;;;8.83;85.89;96688.56;5074665;28;19943;-68
2023/03/20 00:46:40;;;;;;;;;;;;;;;8.83;85.61;96690.38;5074815;28;19942;-70
2023/03/20 00:49:09;;;;;;;;;;;;;;;8.82;85.53;96683.53;5074488;28;19940;-70
2023/03/20 00:51:35;;;;;;;;;;;;;;;8.83;85.56;96685.94;5074410;28;20420;-71
2023/03/20 00:54:01;;;;;;;;;;;;;;;8.83;85.40;96685.94;5074400;28;19939;-70
2023/03/20 00:56:26;;;;;;;;;;;;;;;8.80;85.93;96683.75;5075134;28;19937;-71
2023/03/20 00:58:52;;;;;;;;;;;;;;;8.77;86.59;96689.38;5074260;28;19954;-70
2023/03/20 01:01:19;;;;;;;;;;;;;;;8.74;86.13;96687.16;5074435;28;19940;-70
2023/03/20 01:03:44;;;;;;;;;;;;;;;8.71;85.76;96688.38;5074795;28;19943;-67
2023/03/20 01:06:11;;;;;;;;;;;;;;;8.68;85.64;96688.75;5074473;28;19939;-67
2023/03/20 01:08:37;;;;;;;;;;;;;;;8.68;85.28;96682.72;5073511;28;20400;-67
2023/03/20 01:11:03;;;;;;;;;;;;;;;8.68;85.69;96687.97;5075043;28;19942;-67
2023/03/20 01:13:29;;;;;;;;;;;;;;;8.67;85.48;96694.19;5074094;28;19942;-68
2023/03/20 01:15:56;;;;;;;;;;;;;;;8.64;85.49;96694.59;5074877;28;19946;-67
2023/03/20 01:18:23;;;;;;;;;;;;;;;8.61;85.24;96690.56;5073875;28;19961;-69
2023/03/20 01:20:51;;;;;;;;;;;;;;;8.59;85.28;96692.56;5073576;28;19954;-67
2023/03/20 01:23:18;;;;;;;;;;;;;;;8.54;85.79;96698.38;5073674;28;19967;-69
2023/03/20 01:25:44;;;;;;;;;;;;;;;8.49;85.80;96703.41;5072778;28;20411;-69
2023/03/20 01:28:21;;;;;;;;;;;;;;;8.45;86.06;96701.41;5074121;28;20341;-68
2023/03/20 01:30:48;;;;;;;;;;;;;;;8.42;86.12;96707.81;5073199;28;19946;-68
2023/03/20 01:33:15;;;;;;;;;;;;;;;8.37;86.16;96691.88;5074038;28;19936;-69
2023/03/20 01:35:42;;;;;;;;;;;;;;;8.33;86.63;96699.31;5073691;28;19940;-69
2023/03/20 01:38:12;;;;;;;;;;;;;;;8.32;87.07;96708.16;5074535;28;19941;-70
2023/03/20 01:40:38;;;;;;;;;;;;;;;8.28;87.73;96706.94;5074217;28;19949;-67
2023/03/20 01:43:08;;;;;;;;;;;;;;;8.25;87.70;96709.13;5073931;28;19939;-68
2023/03/20 01:45:34;;;;;;;;;;;;;;;8.24;88.10;96712.75;5074076;28;19941;-68
2023/03/20 01:48:17;;;;;;;;;;;;;;;8.23;87.71;96705.91;5074331;28;19959;-68
2023/03/20 01:50:43;;;;;;;;;;;;;;;8.23;87.27;96703.31;5073527;28;19948;-68
2023/03/20 01:53:17;;;;;;;;;;;;;;;8.21;87.54;96700.91;5073657;28;19988;-67
2023/03/20 01:55:45;;;;;;;;;;;;;;;8.22;87.41;96704.31;5073475;28;19959;-82
2023/03/20 01:58:16;;;;;;;;;;;;;;;8.20;87.88;96707.13;5074360;28;19947;-67
2023/03/20 02:00:42;;;;;;;;;;;;;;;8.20;87.51;96708.94;5074367;28;20406;-68
2023/03/20 02:03:08;;;;;;;;;;;;;;;8.19;87.60;96707.31;5073517;28;19940;-67
2023/03/20 02:05:35;;;;;;;;;;;;;;;8.18;87.52;96708.31;5074062;28;19946;-67
2023/03/20 02:08:21;;;;;;;;;;;;;;;8.16;87.66;96716.34;5073484;28;20322;-67
2023/03/20 02:10:47;;;;;;;;;;;;;;;8.14;88.03;96716.53;5073056;28;19949;-68
2023/03/20 02:13:14;;;;;;;;;;;;;;;8.14;88.27;96715.72;5073420;28;19943;-69
2023/03/20 02:15:57;;;;;;;;;;;;;;;8.13;88.19;96714.94;5072716;28;19952;-86
2023/03/20 02:18:24;;;;;;;;;;;;;;;8.09;88.99;96728.59;5073148;28;19964;-68
2023/03/20 02:20:55;;;;;;;;;;;;;;;8.07;88.98;96720.94;5073000;28;19952;-68
2023/03/20 02:23:21;;;;;;;;;;;;;;;8.04;89.16;96723.94;5072790;28;20292;-68
2023/03/20 02:25:47;;;;;;;;;;;;;;;8.04;88.67;96717.91;5073442;28;19945;-67
2023/03/20 02:28:13;;;;;;;;;;;;;;;8.02;88.75;96715.50;5072928;28;20003;-67
2023/03/20 02:30:54;;;;;;;;;;;;;;;8.01;88.92;96718.31;5073073;28;19956;-67
2023/03/20 02:33:43;;;;;;;;;;;;;;;8.03;88.55;96718.91;5073958;28;19950;-68
2023/03/20 02:36:25;;;;;;;;;;;;;;;8.03;88.49;96721.53;5055914;28;20301;-82
2023/03/20 02:39:09;;;;;;;;;;;;;;;8.03;88.88;96717.09;5074009;28;20274;-83
2023/03/20 02:41:34;;;;;;;;;;;;;;;8.02;88.51;96718.13;5073101;28;19940;-83
2023/03/20 02:44:05;;;;;;;;;;;;;;;8.01;88.37;96721.72;5076083;28;20402;-82
2023/03/20 02:46:51;;;;;;;;;;;;;;;8.00;88.46;96721.91;5077963;28;19946;-84
2023/03/20 02:49:17;;;;;;;;;;;;;;;7.97;88.61;96719.69;5076721;28;19942;-83
2023/03/20 02:51:56;;;;;;;;;;;;;;;7.95;88.41;96722.50;5077673;28;19947;-69
2023/03/20 02:54:44;;;;;;;;;;;;;;;7.94;88.68;96720.91;5076316;28;19951;-70
2023/03/20 02:57:16;;;;;;;;;;;;;;;7.91;88.44;96714.22;5075536;28;19958;-70
2023/03/20 03:00:08;;;;;;;;;;;;;;;7.91;89.09;96721.25;5077071;28;19963;-70
2023/03/20 03:02:57;;;;;;;;;;;;;;;7.88;91.28;96719.06;5076123;28;20340;-71
2023/03/20 03:05:26;;;;;;;;;;;;;;;7.84;90.52;96731.69;5075735;28;19973;-71
2023/03/20 03:07:55;;;;;;;;;;;;;;;7.83;90.54;96729.25;5076927;28;20401;-70
2023/03/20 03:10:26;;;;;;;;;;;;;;;7.83;90.13;96727.47;5076628;28;19945;-71
2023/03/20 03:12:53;;;;;;;;;;;;;;;7.81;90.21;96728.63;5077206;28;19947;-67
2023/03/20 03:15:19;;;;;;;;;;;;;;;7.80;90.51;96727.03;5076339;28;20311;-68
2023/03/20 03:17:46;;;;;;;;;;;;;;;7.81;90.23;96728.63;5076271;28;19950;-67
2023/03/20 03:20:21;;;;;;;;;;;;;;;7.82;90.32;96736.28;5077072;28;19965;-67
2023/03/20 03:22:47;;;;;;;;;;;;;;;7.78;90.33;96734.25;5077105;28;19945;-67
2023/03/20 03:25:13;;;;;;;;;;;;;;;7.76;90.44;96739.66;5076394;28;19957;-68
2023/03/20 03:27:41;;;;;;;;;;;;;;;7.76;90.15;96734.44;5076041;28;19971;-70
2023/03/20 03:30:13;;;;;;;;;;;;;;;7.77;90.57;96743.06;5076048;28;19950;-82
2023/03/20 03:32:45;;;;;;;;;;;;;;;7.76;90.08;96742.28;5076483;28;19944;-84
2023/03/20 03:35:15;;;;;;;;;;;;;;;7.78;90.11;96739.47;5077105;28;19950;-84
2023/03/20 03:37:59;;;;;;;;;;;;;;;7.80;90.73;96740.09;5076143;28;20405;-84
2023/03/20 03:40:40;;;;;;;;;;;;;;;7.80;90.42;96745.31;5076109;28;19954;-85
2023/03/20 03:43:11;;;;;;;;;;;;;;;7.80;90.68;96751.34;5076135;28;19947;-84
2023/03/20 03:46:03;;;;;;;;;;;;;;;7.81;89.99;96741.69;5076304;28;19952;-85
2023/03/20 03:48:49;;;;;;;;;;;;;;;7.73;90.79;96745.28;5075435;28;19953;-68
2023/03/20 03:51:16;;;;;;;;;;;;;;;7.69;90.96;96744.84;5076207;28;19936;-68
2023/03/20 03:53:47;;;;;;;;;;;;;;;7.70;91.20;96749.06;5075172;28;19948;-67
2023/03/20 03:56:15;;;;;;;;;;;;;;;7.71;91.17;96755.13;5074593;28;20409;-68
2023/03/20 03:58:44;;;;;;;;;;;;;;;7.71;91.33;96753.31;5074456;28;19947;-68
2023/03/20 04:01:11;;;;;;;;;;;;;;;7.72;91.55;96759.31;5075483;28;19951;-68
2023/03/20 04:03:39;;;;;;;;;;;;;;;7.73;91.41;96758.34;5075910;28;19947;-69
2023/03/20 04:06:06;;;;;;;;;;;;;;;7.73;91.56;96756.53;5075897;28;19945;-68
2023/03/20 04:08:33;;;;;;;;;;;;;;;7.75;91.59;96761.56;5075803;28;19964;-84
2023/03/20 04:10:59;;;;;;;;;;;;;;;7.75;90.59;96756.34;5075664;28;19945;-89
2023/03/20 04:13:25;;;;;;;;;;;;;;;7.73;92.39;96763.56;5075509;28;19946;-86
2023/03/20 04:15:51;;;;;;;;;;;;;;;7.71;91.71;96762.94;5075700;28;19953;-86
2023/03/20 04:18:18;;;;;;;;;;;;;;;7.70;92.17;96756.09;5075089;28;19947;-86
2023/03/20 04:20:45;;;;;;;;;;;;;;;7.70;92.26;96759.50;5075866;28;19975;-90
2023/03/20 04:23:11;;;;;;;;;;;;;;;7.73;91.83;96756.53;5075732;28;19944;-67
2023/03/20 04:25:37;;;;;;;;;;;;;;;7.73;91.90;96746.09;5075460;28;19942;-68
2023/03/20 04:28:03;;;;;;;;;;;;;;;7.76;92.22;96749.31;5056851;28;20109;-68
2023/03/20 04:30:29;;;;;;;;;;;;;;;7.76;92.43;96744.88;5075031;28;19950;-69
2023/03/20 04:32:56;;;;;;;;;;;;;;;7.78;92.24;96742.91;5075613;28;20401;-67
2023/03/20 04:35:21;;;;;;;;;;;;;;;7.79;92.14;96741.91;5073402;28;19945;-70
2023/03/20 04:37:47;;;;;;;;;;;;;;;7.81;92.17;96742.53;5074647;28;20027;-68
2023/03/20 04:40:13;;;;;;;;;;;;;;;7.82;92.17;96744.13;5073586;28;20002;-68
2023/03/20 04:42:39;;;;;;;;;;;;;;;7.82;92.63;96749.34;5074500;28;19938;-69
2023/03/20 04:45:05;;;;;;;;;;;;;;;7.82;92.33;96748.53;5074702;28;19952;-88
2023/03/20 04:47:31;;;;;;;;;;;;;;;7.82;92.89;96751.97;5073324;28;19949;-84
2023/03/20 04:49:57;;;;;;;;;;;;;;;7.80;92.29;96747.94;5075312;28;19945;-82
2023/03/20 04:52:23;;;;;;;;;;;;;;;7.78;92.92;96747.31;5074704;28;19970;-84
2023/03/20 04:54:49;;;;;;;;;;;;;;;7.77;92.79;96751.75;5074376;28;20330;-79
2023/03/20 04:57:15;;;;;;;;;;;;;;;7.78;96.18;96760.38;5074290;28;19938;-77
2023/03/20 04:59:41;;;;;;;;;;;;;;;7.68;94.68;96745.84;5074249;28;19960;-68
2023/03/20 05:02:07;;;;;;;;;;;;;;;7.66;94.52;96747.03;5074289;28;19943;-68
2023/03/20 05:04:33;;;;;;;;;;;;;;;7.68;94.54;96753.66;5074190;28;20324;-68
2023/03/20 05:06:59;;;;;;;;;;;;;;;7.72;93.99;96754.09;5073566;28;19945;-68
2023/03/20 05:09:25;;;;;;;;;;;;;;;7.76;94.04;96757.16;5074268;28;19947;-68
2023/03/20 05:11:51;;;;;;;;;;;;;;;7.78;93.75;96761.16;5074948;28;19939;-69
2023/03/20 05:14:17;;;;;;;;;;;;;;;7.81;93.72;96768.63;5074612;28;19941;-67
2023/03/20 05:16:42;;;;;;;;;;;;;;;7.81;94.79;96776.47;5074546;28;19942;-68
2023/03/20 05:19:08;;;;;;;;;;;;;;;7.80;94.27;96774.84;5074787;28;20463;-67
2023/03/20 05:21:34;;;;;;;;;;;;;;;7.82;93.73;96777.25;5073900;28;19947;-68
2023/03/20 05:24:00;;;;;;;;;;;;;;;7.79;95.25;96783.69;5073869;28;19960;-68
2023/03/20 05:26:26;;;;;;;;;;;;;;;7.75;94.98;96768.56;5074136;28;20385;-67
2023/03/20 05:28:52;;;;;;;;;;;;;;;7.76;95.63;96771.00;5073873;28;20014;-68
2023/03/20 05:31:18;;;;;;;;;;;;;;;7.76;97.51;96764.97;5074296;28;20405;-68
2023/03/20 05:33:44;;;;;;;;;;;;;;;7.73;95.60;96764.38;5074562;28;19939;-66
2023/03/20 05:36:10;;;;;;;;;;;;;;;7.73;96.02;96758.34;5073686;28;19956;-70
2023/03/20 05:38:36;;;;;;;;;;;;;;;7.74;96.35;96762.53;5074077;28;19991;-69
2023/03/20 05:41:02;;;;;;;;;;;;;;;7.71;95.80;96768.97;5073598;28;19939;-68
2023/03/20 05:43:28;;;;;;;;;;;;;;;7.70;96.59;96769.94;5073662;28;20466;-68
2023/03/20 05:45:55;;;;;;;;;;;;;;;7.70;95.46;96763.94;5073771;28;19945;-68
2023/03/20 05:48:21;;;;;;;;;;;;;;;7.70;96.50;96766.53;5073776;28;20387;-69
2023/03/20 05:50:47;;;;;;;;;;;;;;;7.70;97.33;96780.38;5073602;28;19947;-68
2023/03/20 05:53:13;;;;;;;;;;;;;;;7.75;96.57;96776.41;5073636;28;19948;-68
2023/03/20 05:55:40;;;;;;;;;;;;;;;7.77;97.64;96777.84;5074143;28;19941;-80
2023/03/20 05:58:06;;;;;;;;;;;;;;;7.80;96.24;96784.47;5073021;28;19938;-82
2023/03/20 06:00:32;;;;;;;;;;;;;;;7.77;98.36;96785.69;5074059;28;19960;-79
2023/03/20 06:02:58;;;;;;;;;;;;;;;7.75;98.14;96786.84;5072449;28;19946;-80
2023/03/20 06:05:23;;;;;;;;;;;;;;;7.72;99.00;96790.66;5074375;28;20087;-84
2023/03/20 06:07:49;;;;;;;;;;;;;;;7.71;98.70;96789.06;5073548;28;19944;-80
2023/03/20 06:10:15;;;;;;;;;;;;;;;7.71;99.04;96789.06;5073587;28;19938;-81
2023/03/20 06:12:41;;;;;;;;;;;;;;;7.73;97.78;96784.44;5073938;28;19950;-69
2023/03/20 06:15:07;;;;;;;;;;;;;;;7.75;100.00;96795.50;5073445;28;19945;-68
2023/03/20 06:17:33;;;;;;;;;;;;;;;7.71;99.05;96789.84;5074111;28;19934;-70
2023/03/20 06:20:00;;;;;;;;;;;;;;;7.69;100.00;96791.84;5077305;28;20006;-70
2023/03/20 06:22:25;;;;;;;;;;;;;;;7.67;100.00;96793.84;5077297;28;19946;-70
2023/03/20 06:24:51;;;;;;;;;;;;;;;7.71;100.00;96794.28;5078075;28;19947;-70
2023/03/20 06:27:17;;;;;;;;;;;;;;;7.74;99.82;96796.50;5077110;28;19974;-70
2023/03/20 06:29:43;;;;;;;;;;;;;;;7.80;99.33;96800.16;5077156;28;20437;-70
2023/03/20 06:32:11;;;;;;;;;;;;;;;7.87;100.00;96799.19;5077236;28;19989;-71
2023/03/20 06:34:37;;;;;;;;;;;;;;;7.93;100.00;96801.00;5060113;28;20415;-67
2023/03/20 06:37:02;;;;;;;;;;;;;;;7.97;99.82;96790.19;5077547;28;19963;-67
2023/03/20 06:39:28;;;;;;;;;;;;;;;8.00;99.79;96793.25;5077164;28;20010;-68
2023/03/20 06:41:54;;;;;;;;;;;;;;;8.04;98.80;96797.09;5077286;28;19999;-67
2023/03/20 06:44:20;;;;;;;;;;;;;;;8.13;98.95;96787.28;5077401;28;19943;-68
2023/03/20 06:46:46;;;;;;;;;;;;;;;8.19;99.43;96796.13;5077322;28;19946;-67
2023/03/20 06:49:12;;;;;;;;;;;;;;;8.23;100.00;96802.59;5077626;28;20385;-81
2023/03/20 06:51:38;;;;;;;;;;;;;;;8.23;97.86;96786.91;5075539;28;19947;-69
2023/03/20 06:54:04;;;;;;;;;;;;;;;8.25;98.20;96793.56;5077774;28;19937;-67
2023/03/20 06:56:31;;;;;;;;;;;;;;;8.26;98.84;96784.72;5077169;28;19947;-68
2023/03/20 06:58:57;;;;;;;;;;;;;;;8.32;99.75;96794.41;5076803;28;19941;-68
2023/03/20 07:01:23;;;;;;;;;;;;;;;8.40;98.65;96795.22;5076798;28;19989;-68
2023/03/20 07:03:49;;;;;;;;;;;;;;;8.47;98.18;96801.31;5076833;28;20287;-68
2023/03/20 07:06:17;;;;;;;;;;;;;;;8.52;97.80;96799.75;5076738;28;19951;-68
2023/03/20 07:08:43;;;;;;;;;;;;;;;8.57;98.15;96804.38;5076497;28;19942;-70
2023/03/20 07:11:09;;;;;;;;;;;;;;;8.61;99.03;96810.00;5076658;28;19946;-68
2023/03/20 07:13:35;;;;;;;;;;;;;;;8.66;98.17;96812.84;5076343;28;20043;-68
2023/03/20 07:16:01;;;;;;;;;;;;;;;8.71;96.79;96815.66;5076353;28;19981;-68
2023/03/20 07:18:27;;;;;;;;;;;;;;;8.72;98.18;96825.94;5077060;28;19952;-68
2023/03/20 07:20:57;;;;;;;;;;;;;;;8.73;97.26;96829.34;5076711;28;19957;-68
2023/03/20 07:23:22;;;;;;;;;;;;;;;8.74;97.15;96838.81;5076753;28;19949;-68
2023/03/20 07:25:48;;;;;;;;;;;;;;;8.75;96.99;96835.19;5076394;28;19944;-67
2023/03/20 07:28:14;;;;;;;;;;;;;;;8.70;97.25;96827.94;5076212;28;19970;-67
2023/03/20 07:30:40;;;;;;;;;;;;;;;8.67;95.59;96824.91;5075060;28;19953;-71
2023/03/20 07:33:09;;;;;;;;;;;;;;;8.63;96.92;96834.97;5076451;28;20453;-71
2023/03/20 07:35:35;;;;;;;;;;;;;;;8.58;95.20;96819.03;5076387;28;19944;-70
2023/03/20 07:38:01;;;;;;;;;;;;;;;8.59;96.22;96827.69;5074766;28;19982;-70
2023/03/20 07:40:27;;;;;;;;;;;;;;;8.61;96.27;96818.66;5076086;28;19967;-70
2023/03/20 07:42:53;;;;;;;;;;;;;;;8.66;97.14;96818.88;5075831;28;19945;-70
2023/03/20 07:45:22;;;;;;;;;;;;;;;8.78;94.92;96815.69;5074258;28;19943;-84
2023/03/20 07:47:48;;;;;;;;;;;;;;;8.84;93.45;96815.72;5075856;28;19957;-68
2023/03/20 07:50:14;;;;;;;;;;;;;;;8.86;91.78;96813.72;5075667;28;19945;-68
2023/03/20 07:52:40;;;;;;;;;;;;;;;8.88;91.98;96808.25;5075582;28;19942;-68
2023/03/20 07:55:06;;;;;;;;;;;;;;;8.92;92.47;96817.34;5075591;28;19939;-67
2023/03/20 07:57:32;;;;;;;;;;;;;;;8.98;91.85;96818.34;5075523;28;20303;-68
2023/03/20 07:59:58;;;;;;;;;;;;;;;9.02;91.64;96816.97;5076272;28;19952;-68
2023/03/20 08:02:24;;;;;;;;;;;;;;;9.09;90.57;96818.59;5075489;28;20388;-68
2023/03/20 08:04:50;;;;;;;;;;;;;;;9.15;90.54;96822.19;5076075;28;19946;-68
2023/03/20 08:07:16;;;;;;;;;;;;;;;9.23;90.93;96814.16;5075722;28;19939;-68
2023/03/20 08:09:42;;;;;;;;;;;;;;;9.29;89.75;96813.38;5075505;28;19968;-68
2023/03/20 08:12:08;;;;;;;;;;;;;;;9.33;89.74;96811.16;5076344;28;20380;-68
2023/03/20 08:14:34;;;;;;;;;;;;;;;9.37;88.99;96806.34;5074055;28;20025;-69
2023/03/20 08:17:00;;;;;;;;;;;;;;;9.40;87.89;96796.25;5075746;28;20302;-68
2023/03/20 08:19:25;;;;;;;;;;;;;;;9.43;88.95;96803.72;5075027;28;19945;-68
2023/03/20 08:21:51;;;;;;;;;;;;;;;9.43;86.62;96792.41;5075118;28;19945;-68
2023/03/20 08:24:17;;;;;;;;;;;;;;;9.41;86.50;96799.66;5075652;28;19946;-70
2023/03/20 08:26:45;;;;;;;;;;;;;;;9.40;87.56;96814.56;5074774;28;19939;-69
2023/03/20 08:29:11;;;;;;;;;;;;;;;9.40;87.42;96809.34;5075831;28;19944;-69
2023/03/20 08:31:36;;;;;;;;;;;;;;;9.42;87.31;96798.69;5075439;28;19938;-69
2023/03/20 08:34:02;;;;;;;;;;;;;;;9.47;86.70;96802.31;5075534;28;20400;-69
2023/03/20 08:36:28;;;;;;;;;;;;;;;9.54;86.61;96797.88;5074694;28;19965;-69
2023/03/20 08:38:54;;;;;;;;;;;;;;;9.63;86.71;96800.28;5075558;28;19947;-69
2023/03/20 08:41:20;;;;;;;;;;;;;;;9.67;85.28;96791.00;5074466;28;19952;-67
2023/03/20 08:43:46;;;;;;;;;;;;;;;9.75;85.54;96786.38;5074684;28;19949;-70
2023/03/20 08:46:12;;;;;;;;;;;;;;;9.82;84.10;96778.50;5074600;28;20396;-70
2023/03/20 08:48:38;;;;;;;;;;;;;;;9.93;83.11;96769.19;5075026;28;19953;-70
2023/03/20 08:51:05;;;;;;;;;;;;;;;10.05;83.67;96774.63;5074545;28;20042;-70
2023/03/20 08:53:30;;;;;;;;;;;;;;;10.14;82.08;96755.03;5074393;28;19940;-70
2023/03/20 08:55:56;;;;;;;;;;;;;;;10.21;81.93;96758.44;5074450;28;19942;-70
2023/03/20 08:58:22;;;;;;;;;;;;;;;10.33;82.59;96771.72;5074399;28;19942;-70
2023/03/20 09:00:48;;;;;;;;;;;;;;;10.36;79.83;96753.75;5074265;28;19953;-68
2023/03/20 09:03:15;;;;;;;;;;;;;;;10.43;81.13;96756.34;5074564;28;19945;-68
2023/03/20 09:05:42;;;;;;;;;;;;;;;10.45;78.64;96746.44;5074738;28;19945;-68
2023/03/20 09:08:08;;;;;;;;;;;;;;;10.46;79.35;96753.31;5074991;28;19949;-67
2023/03/20 09:10:34;;;;;;;;;;;;;;;10.45;79.33;96764.00;5074963;28;19943;-69
2023/03/20 09:13:00;;;;;;;;;;;;;;;10.48;80.71;96767.03;5074362;28;20025;-68
2023/03/20 09:15:26;;;;;;;;;;;;;;;10.52;78.51;96757.72;5074064;28;19964;-69
2023/03/20 09:17:52;;;;;;;;;;;;;;;10.57;78.03;96749.22;5074384;28;19938;-68
2023/03/20 09:20:18;;;;;;;;;;;;;;;10.61;78.90;96762.75;5073981;28;20042;-69
2023/03/20 09:22:44;;;;;;;;;;;;;;;10.63;79.29;96772.00;5073983;28;19944;-69
2023/03/20 09:25:10;;;;;;;;;;;;;;;10.65;77.92;96756.84;5074086;28;19941;-68
2023/03/20 09:27:37;;;;;;;;;;;;;;;10.69;78.62;96767.75;5073830;28;20340;-69
2023/03/20 09:30:04;;;;;;;;;;;;;;;10.72;76.94;96751.56;5073928;28;19941;-70
2023/03/20 09:32:30;;;;;;;;;;;;;;;10.79;76.91;96754.94;5074326;28;19941;-70
2023/03/20 09:34:56;;;;;;;;;;;;;;;10.87;77.82;96759.13;5074397;28;19944;-69
2023/03/20 09:37:22;;;;;;;;;;;;;;;10.96;76.11;96740.31;5073795;28;19955;-69
2023/03/20 09:39:48;;;;;;;;;;;;;;;11.05;76.63;96748.72;5074340;28;19945;-83
2023/03/20 09:42:26;;;;;;;;;;;;;;;11.14;77.16;96751.88;5073749;28;19944;-84
2023/03/20 09:45:12;;;;;;;;;;;;;;;11.22;74.85;96730.63;5074343;28;19942;-82
2023/03/20 09:47:41;;;;;;;;;;;;;;;11.28;73.74;96719.28;5073143;28;20442;-83
2023/03/20 09:50:22;;;;;;;;;;;;;;;11.30;74.56;96726.94;5074233;28;19949;-82
2023/03/20 09:52:55;;;;;;;;;;;;;;;11.28;75.09;96735.03;5073358;28;19943;-83
2023/03/20 09:55:24;;;;;;;;;;;;;;;11.27;73.83;96727.34;5073973;28;19937;-69
2023/03/20 09:57:53;;;;;;;;;;;;;;;11.28;74.96;96740.28;5073608;28;19951;-69
2023/03/20 10:00:23;;;;;;;;;;;;;;;11.33;72.24;96721.25;5074375;28;19954;-69
2023/03/20 10:02:52;;;;;;;;;;;;;;;11.43;74.46;96741.78;5073543;28;19945;-69
2023/03/20 10:05:25;;;;;;;;;;;;;;;11.49;72.98;96730.41;5073565;28;20306;-69
2023/03/20 10:07:59;;;;;;;;;;;;;;;11.51;70.98;96718.66;5074374;28;19935;-68
2023/03/20 10:10:45;;;;;;;;;;;;;;;11.57;72.64;96727.50;5074305;28;19945;-70
2023/03/20 10:13:11;;;;;;;;;;;;;;;11.71;73.15;96746.56;5073441;28;19948;-69
2023/03/20 10:15:42;;;;;;;;;;;;;;;11.86;70.22;96718.09;5073421;28;19952;-70
2023/03/20 10:18:08;;;;;;;;;;;;;;;12.04;71.22;96729.66;5073732;28;19948;-70
2023/03/20 10:20:35;;;;;;;;;;;;;;;12.06;68.85;96720.53;5073564;28;19955;-71
2023/03/20 10:23:04;;;;;;;;;;;;;;;12.01;69.04;96728.28;5073374;28;19936;-70
2023/03/20 10:25:32;;;;;;;;;;;;;;;11.95;69.21;96726.53;5073609;28;20418;-70
2023/03/20 10:27:58;;;;;;;;;;;;;;;11.92;69.04;96737.47;5073682;28;20351;-70
2023/03/20 10:30:30;;;;;;;;;;;;;;;11.90;67.54;96731.63;5073320;28;19960;-69
2023/03/20 10:33:02;;;;;;;;;;;;;;;11.90;67.65;96735.06;5073909;28;19946;-69
2023/03/20 10:35:28;;;;;;;;;;;;;;;11.92;68.82;96747.97;5073235;28;20316;-82
2023/03/20 10:38:12;;;;;;;;;;;;;;;11.93;68.04;96737.25;5073435;28;19951;-83
2023/03/20 10:40:40;;;;;;;;;;;;;;;11.95;66.91;96732.59;5073104;28;19965;-82
2023/03/20 10:43:15;;;;;;;;;;;;;;;12.05;68.55;96741.78;5073229;28;19937;-82
2023/03/20 10:45:49;;;;;;;;;;;;;;;12.22;68.51;96747.25;5073428;28;19940;-82
2023/03/20 10:48:19;;;;;;;;;;;;;;;12.35;67.47;96744.47;5073154;28;20396;-82
2023/03/20 10:50:50;;;;;;;;;;;;;;;12.39;68.09;96754.31;5073326;28;19951;-69
2023/03/20 10:53:29;;;;;;;;;;;;;;;12.48;66.25;96746.91;5073083;28;19949;-85
2023/03/20 10:55:57;;;;;;;;;;;;;;;12.56;67.40;96746.63;5073315;28;19948;-85
2023/03/20 10:58:25;;;;;;;;;;;;;;;12.68;67.35;96746.66;5073049;28;19936;-85
2023/03/20 11:00:53;;;;;;;;;;;;;;;12.82;65.95;96739.38;5073227;28;19958;-86
2023/03/20 11:03:26;;;;;;;;;;;;;;;12.91;66.63;96750.38;5073621;28;19943;-85
2023/03/20 11:06:03;;;;;;;;;;;;;;;12.96;63.67;96732.91;5076195;28;19943;-86
2023/03/20 11:08:33;;;;;;;;;;;;;;;13.06;65.36;96744.69;5076539;28;19954;-82
2023/03/20 11:11:00;;;;;;;;;;;;;;;13.13;64.27;96742.78;5077290;28;19946;-69
2023/03/20 11:13:34;;;;;;;;;;;;;;;13.22;63.37;96736.13;5076419;28;19943;-69
2023/03/20 11:16:15;;;;;;;;;;;;;;;13.47;64.78;96745.69;5075799;28;19943;-69
2023/03/20 11:18:41;;;;;;;;;;;;;;;13.53;62.35;96742.16;5076842;28;19947;-69
2023/03/20 11:21:12;;;;;;;;;;;;;;;13.51;62.69;96736.31;5077041;28;19963;-68
2023/03/20 11:23:38;;;;;;;;;;;;;;;13.42;62.67;96742.94;5076778;28;20320;-69
2023/03/20 11:26:06;;;;;;;;;;;;;;;13.32;64.74;96756.69;5077051;28;19941;-69
2023/03/20 11:28:31;;;;;;;;;;;;;;;13.16;62.27;96744.94;5074848;28;19967;-69
2023/03/20 11:31:24;;;;;;;;;;;;;;;13.09;63.35;96746.88;5076784;28;19946;-69
2023/03/20 11:34:02;;;;;;;;;;;;;;;13.04;63.48;96754.66;5076072;28;19942;-69
2023/03/20 11:36:29;;;;;;;;;;;;;;;13.02;60.12;96744.38;5074615;28;19964;-69
2023/03/20 11:39:15;;;;;;;;;;;;;;;13.07;64.81;96762.91;5075857;28;19939;-70
2023/03/20 11:41:44;;;;;;;;;;;;;;;13.11;63.72;96752.72;5076309;28;19966;-69
2023/03/20 11:44:24;;;;;;;;;;;;;;;13.09;63.82;96760.84;5074582;28;19954;-82
2023/03/20 11:46:59;;;;;;;;;;;;;;;13.04;63.73;96762.53;5075421;28;19937;-69
2023/03/20 11:49:26;;;;;;;;;;;;;;;12.85;62.56;96752.09;5075774;28;19949;-68
2023/03/20 11:51:54;;;;;;;;;;;;;;;12.69;63.03;96764.06;5075836;28;19961;-68
2023/03/20 11:54:21;;;;;;;;;;;;;;;12.57;63.36;96753.47;5075704;28;19941;-69
2023/03/20 11:56:55;;;;;;;;;;;;;;;12.55;62.74;96755.50;5075645;28;19941;-68
2023/03/20 11:59:21;;;;;;;;;;;;;;;12.62;63.74;96754.63;5076111;28;19942;-69
2023/03/20 12:01:49;;;;;;;;;;;;;;;12.66;61.75;96742.63;5076236;28;19963;-69
2023/03/20 12:04:16;;;;;;;;;;;;;;;12.68;60.65;96743.22;5076126;28;20339;-82
2023/03/20 12:06:45;;;;;;;;;;;;;;;12.71;61.50;96751.47;5075863;28;19942;-70
2023/03/20 12:09:30;;;;;;;;;;;;;;;12.71;60.21;96743.56;5075387;28;19946;-70
2023/03/20 12:11:58;;;;;;;;;;;;;;;12.83;60.42;96740.16;5075297;28;19935;-71
2023/03/20 12:14:29;;;;;;;;;;;;;;;13.05;60.13;96735.22;5075274;28;19946;-70
2023/03/20 12:17:00;;;;;;;;;;;;;;;13.24;58.47;96725.38;5073555;28;19942;-70
2023/03/20 12:19:29;;;;;;;;;;;;;;;13.38;58.81;96724.97;5073840;28;19942;-70
2023/03/20 12:22:07;;;;;;;;;;;;;;;13.38;59.87;96735.50;5075846;28;19955;-69
2023/03/20 12:24:40;;;;;;;;;;;;;;;13.38;60.80;96734.72;5075661;28;19950;-69
2023/03/20 12:27:15;;;;;;;;;;;;;;;13.37;59.51;96719.91;5074827;28;19967;-69
2023/03/20 12:29:59;;;;;;;;;;;;;;;13.38;61.04;96732.88;5073605;28;19947;-68
2023/03/20 12:32:25;;;;;;;;;;;;;;;13.44;59.17;96723.25;5075211;28;19937;-69
2023/03/20 12:35:12;;;;;;;;;;;;;;;13.51;59.18;96729.19;5074805;28;19946;-69
2023/03/20 12:37:38;;;;;;;;;;;;;;;13.57;60.75;96725.66;5075228;28;19962;-68
2023/03/20 12:40:04;;;;;;;;;;;;;;;13.66;57.33;96718.19;5074734;28;19940;-69
2023/03/20 12:42:50;;;;;;;;;;;;;;;13.74;58.65;96722.31;5074592;28;19956;-69
2023/03/20 12:45:18;;;;;;;;;;;;;;;13.81;59.41;96723.00;5074633;28;19943;-68
2023/03/20 12:48:02;;;;;;;;;;;;;;;13.91;58.38;96714.50;5075395;28;19948;-68
2023/03/20 12:50:33;;;;;;;;;;;;;;;13.92;57.67;96711.66;5075042;28;19947;-69
2023/03/20 12:52:59;;;;;;;;;;;;;;;13.89;58.35;96720.00;5074992;28;20313;-69
2023/03/20 12:55:32;;;;;;;;;;;;;;;13.90;55.45;96712.88;5075005;28;19946;-69
2023/03/20 12:58:01;;;;;;;;;;;;;;;13.92;56.42;96721.38;5074748;28;19943;-88
2023/03/20 13:00:27;;;;;;;;;;;;;;;13.99;58.29;96729.97;5074377;28;19960;-88
2023/03/20 13:03:01;;;;;;;;;;;;;;;14.05;56.71;96720.31;5074401;28;19939;-88